createdAt,value
2023-01-19T00:00:33.442Z,-2.20
2023-01-19T00:03:00.231Z,-2.20
2023-01-19T00:05:26.991Z,-2.20
2023-01-19T00:07:53.797Z,-2.10
2023-01-19T00:10:20.670Z,-2.10
2023-01-19T00:12:47.360Z,-2.10
2023-01-19T00:15:14.094Z,-2.10
2023-01-19T00:17:41.148Z,-2.10
2023-01-19T00:20:09.699Z,-2.10
2023-01-19T00:22:36.677Z,-2.10
2023-01-19T00:25:03.878Z,-2.10
2023-01-19T00:27:34.841Z,-2.10
2023-01-19T00:30:02.021Z,-2.20
2023-01-19T00:32:28.736Z,-2.30
2023-01-19T00:34:55.740Z,-2.30
2023-01-19T00:37:22.439Z,-2.20
2023-01-19T00:39:49.261Z,-2.20
2023-01-19T00:42:34.699Z,-2.20
2023-01-19T00:45:01.528Z,-2.10
2023-01-19T00:47:28.246Z,-2.00
2023-01-19T00:49:55.870Z,-1.90
2023-01-19T00:52:22.926Z,-1.80
2023-01-19T00:54:49.733Z,-1.60
2023-01-19T00:57:17.152Z,-1.60
2023-01-19T00:59:43.920Z,-1.60
2023-01-19T01:02:11.559Z,-1.60
2023-01-19T01:04:38.437Z,-1.60
2023-01-19T01:07:05.173Z,-1.60
2023-01-19T01:09:32.431Z,-1.70
2023-01-19T01:11:59.572Z,-1.70
2023-01-19T01:14:26.830Z,-1.80
2023-01-19T01:16:55.858Z,-1.80
2023-01-19T01:19:22.628Z,-1.80
2023-01-19T01:21:49.507Z,-1.90
2023-01-19T01:24:16.295Z,-1.80
2023-01-19T01:26:43.081Z,-1.90
2023-01-19T01:29:10.012Z,-1.80
2023-01-19T01:31:36.830Z,-1.90
2023-01-19T01:34:03.728Z,-1.80
2023-01-19T01:36:33.233Z,-1.80
2023-01-19T01:39:00.612Z,-1.80
2023-01-19T01:41:27.502Z,-1.70
2023-01-19T01:43:58.861Z,-1.60
2023-01-19T01:46:27.088Z,-1.60
2023-01-19T01:48:56.572Z,-1.60
2023-01-19T01:51:30.453Z,-1.60
2023-01-19T01:54:21.611Z,-1.60
2023-01-19T01:56:51.806Z,-1.70
2023-01-19T01:59:39.169Z,-1.60
2023-01-19T02:02:29.953Z,-1.60
2023-01-19T02:05:04.112Z,-1.60
2023-01-19T02:08:04.718Z,-1.60
2023-01-19T02:10:51.130Z,-1.60
2023-01-19T02:13:21.754Z,-1.60
2023-01-19T02:15:55.056Z,-1.60
2023-01-19T02:18:24.597Z,-1.70
2023-01-19T02:21:14.235Z,-1.70
2023-01-19T02:23:58.631Z,-1.70
2023-01-19T02:26:29.536Z,-1.70
2023-01-19T02:28:59.784Z,-1.60
2023-01-19T02:31:28.787Z,-1.70
2023-01-19T02:33:56.667Z,-1.60
2023-01-19T02:36:27.099Z,-1.60
2023-01-19T02:38:56.874Z,-1.60
2023-01-19T02:41:29.861Z,-1.60
2023-01-19T02:43:58.548Z,-1.60
2023-01-19T02:46:25.772Z,-1.60
2023-01-19T02:48:52.466Z,-1.60
2023-01-19T02:51:24.661Z,-1.60
2023-01-19T02:54:25.409Z,-1.50
2023-01-19T02:57:02.793Z,-1.50
2023-01-19T02:59:48.639Z,-1.60
2023-01-19T03:02:39.673Z,-1.60
2023-01-19T03:05:30.249Z,-1.50
2023-01-19T03:08:15.902Z,-1.40
2023-01-19T03:11:06.154Z,-1.40
2023-01-19T03:13:45.595Z,-1.40
2023-01-19T03:16:28.074Z,-1.40
2023-01-19T03:19:20.157Z,-1.40
2023-01-19T03:21:50.557Z,-1.40
2023-01-19T03:24:19.857Z,-1.40
2023-01-19T03:26:52.151Z,-1.40
2023-01-19T03:29:22.698Z,-1.40
2023-01-19T03:31:52.011Z,-1.40
2023-01-19T03:34:22.805Z,-1.50
2023-01-19T03:36:54.031Z,-1.50
2023-01-19T03:39:25.686Z,-1.50
2023-01-19T03:41:59.765Z,-1.50
2023-01-19T03:44:28.371Z,-1.50
2023-01-19T03:46:56.773Z,-1.50
2023-01-19T03:49:23.679Z,-1.50
2023-01-19T03:51:50.496Z,-1.50
2023-01-19T03:54:17.602Z,-1.50
2023-01-19T03:56:44.632Z,-1.40
2023-01-19T03:59:11.363Z,-1.30
2023-01-19T04:01:38.139Z,-1.30
2023-01-19T04:04:04.954Z,-1.30
2023-01-19T04:06:32.104Z,-1.10
2023-01-19T04:08:59.017Z,-1.10
2023-01-19T04:11:25.767Z,-1.00
2023-01-19T04:13:52.445Z,-0.90
2023-01-19T04:16:21.143Z,-0.80
2023-01-19T04:18:48.607Z,-0.80
2023-01-19T04:21:16.186Z,-0.80
2023-01-19T04:23:44.323Z,-0.70
2023-01-19T04:26:11.037Z,-0.70
2023-01-19T04:28:38.008Z,-0.60
2023-01-19T04:31:06.404Z,-0.60
2023-01-19T04:33:33.655Z,-0.60
2023-01-19T04:36:00.893Z,-0.70
2023-01-19T04:38:27.791Z,-0.70
2023-01-19T04:40:54.931Z,-0.80
2023-01-19T04:43:23.434Z,-0.70
2023-01-19T04:45:50.845Z,-0.70
2023-01-19T04:48:18.982Z,-0.70
2023-01-19T04:50:46.244Z,-0.70
2023-01-19T04:53:13.983Z,-0.70
2023-01-19T04:55:41.349Z,-0.60
2023-01-19T04:58:08.612Z,-0.60
2023-01-19T05:00:35.978Z,-0.50
2023-01-19T05:03:03.117Z,-0.40
2023-01-19T05:05:30.766Z,-0.30
2023-01-19T05:07:57.440Z,-0.30
2023-01-19T05:10:24.269Z,-0.30
2023-01-19T05:12:51.358Z,-0.20
2023-01-19T05:15:18.216Z,-0.10
2023-01-19T05:17:45.211Z,-0.10
2023-01-19T05:20:15.069Z,-0.10
2023-01-19T05:22:43.484Z,0.00
2023-01-19T05:25:10.287Z,0.00
2023-01-19T05:27:38.580Z,0.00
2023-01-19T05:30:06.328Z,0.10
2023-01-19T05:32:33.048Z,0.10
2023-01-19T05:34:59.927Z,0.10
2023-01-19T05:37:26.682Z,0.10
2023-01-19T05:39:54.732Z,0.10
2023-01-19T05:42:21.552Z,0.10
2023-01-19T05:44:48.478Z,0.10
2023-01-19T05:47:15.444Z,0.20
2023-01-19T05:49:42.197Z,0.10
2023-01-19T05:52:08.979Z,0.10
2023-01-19T05:54:35.795Z,0.00
2023-01-19T05:57:03.558Z,-0.10
2023-01-19T05:59:30.268Z,-0.10
2023-01-19T06:01:57.352Z,-0.20
2023-01-19T06:04:24.486Z,-0.30
2023-01-19T06:06:51.902Z,-0.40
2023-01-19T06:09:19.265Z,-0.50
2023-01-19T06:11:46.671Z,-0.50
2023-01-19T06:14:13.649Z,-0.60
2023-01-19T06:16:40.851Z,-0.60
2023-01-19T06:19:07.753Z,-0.60
2023-01-19T06:21:34.976Z,-0.50
2023-01-19T06:24:01.898Z,-0.50
2023-01-19T06:26:28.648Z,-0.50
2023-01-19T06:28:56.255Z,-0.40
2023-01-19T06:31:23.237Z,-0.30
2023-01-19T06:33:50.093Z,-0.30
2023-01-19T06:36:16.773Z,-0.30
2023-01-19T06:38:43.885Z,-0.20
2023-01-19T06:41:10.706Z,-0.20
2023-01-19T06:43:37.387Z,-0.20
2023-01-19T06:46:04.794Z,-0.20
2023-01-19T06:48:31.570Z,-0.20
2023-01-19T06:50:59.733Z,-0.20
2023-01-19T06:53:28.395Z,-0.20
2023-01-19T06:56:00.079Z,-0.30
2023-01-19T06:58:28.238Z,-0.20
2023-01-19T07:00:55.175Z,-0.20
2023-01-19T07:03:23.408Z,-0.20
2023-01-19T07:05:53.650Z,-0.10
2023-01-19T07:08:20.738Z,-0.10
2023-01-19T07:11:26.479Z,-0.10
2023-01-19T07:13:35.878Z,-0.10
2023-01-19T07:16:08.178Z,0.00
2023-01-19T07:18:36.387Z,0.00
2023-01-19T07:21:03.968Z,-0.10
2023-01-19T07:23:30.840Z,-0.10
2023-01-19T07:25:58.987Z,0.00
2023-01-19T07:28:26.192Z,0.00
2023-01-19T07:30:53.937Z,0.10
2023-01-19T07:33:22.084Z,0.20
2023-01-19T07:35:50.140Z,0.20
2023-01-19T07:38:18.787Z,0.20
2023-01-19T07:40:48.571Z,0.30
2023-01-19T07:43:15.944Z,0.30
2023-01-19T07:45:43.537Z,0.30
2023-01-19T07:48:10.434Z,0.40
2023-01-19T07:50:37.775Z,0.40
2023-01-19T07:53:09.103Z,0.50
2023-01-19T07:55:36.220Z,0.40
2023-01-19T07:58:06.566Z,0.40
2023-01-19T08:00:35.442Z,0.40
2023-01-19T08:03:03.561Z,0.50
2023-01-19T08:05:31.558Z,0.50
2023-01-19T08:07:59.077Z,0.60
2023-01-19T08:10:27.792Z,0.60
2023-01-19T08:12:55.848Z,0.70
2023-01-19T08:15:24.624Z,0.60
2023-01-19T08:17:59.943Z,0.70
2023-01-19T08:20:27.893Z,0.70
2023-01-19T08:23:00.130Z,0.70
2023-01-19T08:25:36.605Z,0.80
2023-01-19T08:28:04.488Z,0.80
2023-01-19T08:30:31.980Z,0.90
2023-01-19T08:33:04.230Z,0.80
2023-01-19T08:35:32.457Z,0.90
2023-01-19T08:38:01.420Z,1.00
2023-01-19T08:40:29.695Z,1.00
2023-01-19T08:43:03.555Z,1.00
2023-01-19T08:45:33.574Z,1.00
2023-01-19T08:48:00.922Z,1.10
2023-01-19T08:50:32.684Z,1.00
2023-01-19T08:53:01.622Z,0.90
2023-01-19T08:55:29.391Z,0.90
2023-01-19T08:57:58.013Z,0.90
2023-01-19T09:00:25.431Z,0.90
2023-01-19T09:02:52.136Z,1.00
2023-01-19T09:05:19.604Z,0.90
2023-01-19T09:07:48.062Z,1.00
2023-01-19T09:10:16.082Z,1.10
2023-01-19T09:12:44.782Z,1.10
2023-01-19T09:15:13.809Z,1.10
2023-01-19T09:17:43.565Z,1.10
2023-01-19T09:20:10.912Z,1.00
2023-01-19T09:22:39.533Z,1.00
2023-01-19T09:25:07.767Z,1.00
2023-01-19T09:27:35.563Z,1.00
2023-01-19T09:30:04.238Z,1.00
2023-01-19T09:32:30.969Z,1.00
2023-01-19T09:34:57.714Z,1.00
2023-01-19T09:37:24.459Z,1.00
2023-01-19T09:39:51.239Z,1.10
2023-01-19T09:42:29.628Z,1.10
2023-01-19T09:44:56.317Z,1.10
2023-01-19T09:47:29.489Z,1.20
2023-01-19T09:50:04.159Z,1.20
2023-01-19T09:52:35.956Z,1.20
2023-01-19T09:55:02.695Z,1.10
2023-01-19T09:57:35.901Z,1.20
2023-01-19T10:00:11.169Z,1.30
2023-01-19T10:02:44.350Z,1.30
2023-01-19T10:05:31.856Z,1.30
2023-01-19T10:08:13.764Z,1.40
2023-01-19T10:10:45.530Z,1.40
2023-01-19T10:13:34.042Z,1.30
2023-01-19T10:16:25.137Z,1.40
2023-01-19T10:18:57.451Z,1.40
2023-01-19T10:21:33.462Z,1.40
2023-01-19T10:24:18.119Z,1.40
2023-01-19T10:26:53.187Z,1.50
2023-01-19T10:29:36.270Z,1.40
2023-01-19T10:32:13.717Z,1.50
2023-01-19T10:34:41.645Z,1.40
2023-01-19T10:37:17.267Z,1.40
2023-01-19T10:39:53.936Z,1.40
2023-01-19T10:42:20.868Z,1.50
2023-01-19T10:44:48.964Z,1.50
2023-01-19T10:47:20.833Z,1.60
2023-01-19T10:49:48.942Z,1.70
2023-01-19T10:52:21.052Z,1.70
2023-01-19T10:54:48.553Z,1.80
2023-01-19T10:57:27.962Z,1.80
2023-01-19T10:59:54.709Z,2.00
2023-01-19T11:02:28.907Z,2.00
2023-01-19T11:04:58.667Z,1.90
2023-01-19T11:07:33.469Z,2.00
2023-01-19T11:10:24.057Z,2.10
2023-01-19T11:12:56.288Z,2.20
2023-01-19T11:15:30.577Z,2.30
2023-01-19T11:17:57.993Z,2.40
2023-01-19T11:20:29.049Z,2.50
2023-01-19T11:23:26.721Z,2.40
2023-01-19T11:25:58.761Z,2.40
2023-01-19T11:28:34.938Z,2.40
2023-01-19T11:31:02.788Z,2.50
2023-01-19T11:33:41.629Z,2.40
2023-01-19T11:36:23.191Z,2.50
2023-01-19T11:38:55.879Z,2.50
2023-01-19T11:41:35.512Z,2.60
2023-01-19T11:44:24.338Z,2.70
2023-01-19T11:46:55.720Z,2.80
2023-01-19T11:49:46.641Z,2.80
2023-01-19T11:52:42.318Z,2.80
2023-01-19T11:55:18.488Z,2.80
2023-01-19T11:57:51.959Z,2.80
2023-01-19T12:00:25.323Z,2.70
2023-01-19T12:03:05.109Z,2.70
2023-01-19T12:05:34.287Z,2.60
2023-01-19T12:08:07.024Z,2.60
2023-01-19T12:10:41.506Z,2.60
2023-01-19T12:13:23.811Z,2.60
2023-01-19T12:16:04.950Z,2.60
2023-01-19T12:18:45.967Z,2.60
2023-01-19T12:21:12.736Z,2.60
2023-01-19T12:23:59.497Z,2.60
2023-01-19T12:26:38.234Z,2.50
2023-01-19T12:29:06.743Z,2.50
2023-01-19T12:31:33.752Z,2.50
2023-01-19T12:34:31.202Z,2.50
2023-01-19T12:37:06.583Z,2.50
2023-01-19T12:39:35.831Z,2.60
2023-01-19T12:42:07.605Z,2.70
2023-01-19T12:44:34.739Z,2.80
2023-01-19T12:47:20.061Z,2.80
2023-01-19T12:49:50.891Z,2.80
2023-01-19T12:52:41.020Z,2.80
2023-01-19T12:55:14.016Z,2.90
2023-01-19T12:57:49.393Z,2.90
2023-01-19T13:00:21.862Z,3.10
2023-01-19T13:02:52.732Z,3.20
2023-01-19T13:05:24.408Z,3.30
2023-01-19T13:08:03.276Z,3.40
2023-01-19T13:10:54.692Z,3.40
2023-01-19T13:13:24.821Z,3.40
2023-01-19T13:15:55.605Z,3.20
2023-01-19T13:18:25.053Z,3.10
2023-01-19T13:21:05.816Z,3.00
2023-01-19T13:23:49.721Z,3.00
2023-01-19T13:26:24.731Z,3.10
2023-01-19T13:28:57.418Z,3.10
2023-01-19T13:31:25.529Z,3.30
2023-01-19T13:33:55.745Z,3.30
2023-01-19T13:36:28.816Z,3.50
2023-01-19T13:38:58.747Z,3.60
2023-01-19T13:41:30.560Z,3.60
2023-01-19T13:44:02.008Z,3.70
2023-01-19T13:46:30.360Z,3.80
2023-01-19T13:49:12.977Z,3.90
2023-01-19T13:51:39.811Z,3.80
2023-01-19T13:54:16.841Z,3.80
2023-01-19T13:56:52.326Z,3.80
2023-01-19T13:59:19.158Z,3.90
2023-01-19T14:01:47.288Z,3.80
2023-01-19T14:04:29.572Z,3.70
2023-01-19T14:07:03.777Z,3.70
2023-01-19T14:09:30.644Z,3.80
2023-01-19T14:12:13.983Z,3.80
2023-01-19T14:14:43.215Z,3.80
2023-01-19T14:17:36.617Z,3.70
2023-01-19T14:20:05.423Z,3.70
2023-01-19T14:22:43.656Z,3.70
2023-01-19T14:25:36.306Z,3.60
2023-01-19T14:28:40.775Z,3.60
2023-01-19T14:31:22.374Z,3.60
2023-01-19T14:33:54.479Z,3.70
2023-01-19T14:36:28.161Z,3.70
2023-01-19T14:38:57.983Z,3.70
2023-01-19T14:41:38.621Z,3.70
2023-01-19T14:44:17.306Z,3.70
2023-01-19T14:46:48.518Z,3.70
2023-01-19T14:49:27.995Z,3.60
2023-01-19T14:51:55.946Z,3.30
2023-01-19T14:54:31.282Z,3.40
2023-01-19T14:56:58.104Z,3.30
2023-01-19T14:59:25.067Z,3.30
2023-01-19T15:01:51.982Z,3.30
2023-01-19T15:04:18.786Z,3.30
2023-01-19T15:06:45.816Z,3.40
2023-01-19T15:09:14.341Z,3.30
2023-01-19T15:11:41.877Z,3.30
2023-01-19T15:14:13.601Z,3.30
2023-01-19T15:16:41.249Z,3.30
2023-01-19T15:19:12.973Z,3.30
2023-01-19T15:21:42.090Z,3.30
2023-01-19T15:24:10.533Z,3.30
2023-01-19T15:26:39.410Z,3.30
2023-01-19T15:29:26.543Z,3.20
2023-01-19T15:31:53.416Z,3.30
2023-01-19T15:34:20.236Z,3.30
2023-01-19T15:36:46.938Z,3.30
2023-01-19T15:39:13.616Z,3.20
2023-01-19T15:41:40.516Z,3.10
2023-01-19T15:44:10.618Z,3.00
2023-01-19T15:46:37.945Z,3.00
2023-01-19T15:49:07.991Z,2.90
2023-01-19T15:51:34.703Z,2.90
2023-01-19T15:54:01.437Z,2.90
2023-01-19T15:56:30.365Z,2.80
2023-01-19T15:58:58.407Z,2.80
2023-01-19T16:01:32.175Z,2.80
2023-01-19T16:04:01.206Z,2.80
2023-01-19T16:06:29.181Z,2.70
2023-01-19T16:08:59.698Z,2.70
2023-01-19T16:11:37.704Z,2.70
2023-01-19T16:14:04.496Z,2.70
2023-01-19T16:16:31.296Z,2.60
2023-01-19T16:18:58.111Z,2.70
2023-01-19T16:21:25.254Z,2.70
2023-01-19T16:23:52.917Z,2.70
2023-01-19T16:26:32.499Z,2.70
2023-01-19T16:29:01.291Z,2.60
2023-01-19T16:31:29.080Z,2.60
2023-01-19T16:33:55.919Z,2.60
2023-01-19T16:36:31.441Z,2.50
2023-01-19T16:39:00.097Z,2.50
2023-01-19T16:41:27.309Z,2.50
2023-01-19T16:43:55.695Z,2.50
2023-01-19T16:46:25.495Z,2.50
2023-01-19T16:48:52.946Z,2.50
2023-01-19T16:51:20.379Z,2.50
2023-01-19T16:53:50.108Z,2.50
2023-01-19T16:56:17.372Z,2.50
2023-01-19T16:58:44.370Z,2.40
2023-01-19T17:01:18.372Z,2.40
2023-01-19T17:03:46.696Z,2.40
2023-01-19T17:06:17.936Z,2.40
2023-01-19T17:08:44.819Z,2.40
2023-01-19T17:11:19.328Z,2.30
2023-01-19T17:13:47.221Z,2.40
2023-01-19T17:16:13.958Z,2.30
2023-01-19T17:18:40.805Z,2.30
2023-01-19T17:21:09.886Z,2.30
2023-01-19T17:23:37.662Z,2.30
2023-01-19T17:26:05.002Z,2.30
2023-01-19T17:28:31.704Z,2.40
2023-01-19T17:31:08.154Z,2.30
2023-01-19T17:33:35.099Z,2.30
2023-01-19T17:36:07.218Z,2.20
2023-01-19T17:38:34.761Z,2.30
2023-01-19T17:41:01.576Z,2.30
2023-01-19T17:43:28.316Z,2.30
2023-01-19T17:45:55.012Z,2.30
2023-01-19T17:48:21.762Z,2.20
2023-01-19T17:50:48.476Z,2.20
2023-01-19T17:53:15.375Z,2.10
2023-01-19T17:55:42.189Z,2.10
2023-01-19T17:58:08.893Z,2.10
2023-01-19T18:00:35.804Z,2.10
2023-01-19T18:03:02.576Z,2.20
2023-01-19T18:05:29.296Z,2.20
2023-01-19T18:07:56.153Z,2.20
2023-01-19T18:10:22.895Z,2.20
2023-01-19T18:12:49.601Z,2.10
2023-01-19T18:15:17.077Z,2.20
2023-01-19T18:17:43.971Z,2.20
2023-01-19T18:20:11.478Z,2.20
2023-01-19T18:22:38.424Z,2.20
2023-01-19T18:25:07.537Z,2.20
2023-01-19T18:27:34.209Z,2.20
2023-01-19T18:30:00.932Z,2.20
2023-01-19T18:32:27.686Z,2.20
2023-01-19T18:34:54.482Z,2.30
2023-01-19T18:37:21.260Z,2.20
2023-01-19T18:39:47.991Z,2.20
2023-01-19T18:42:14.783Z,2.20
2023-01-19T18:44:41.556Z,2.20
2023-01-19T18:47:08.336Z,2.10
2023-01-19T18:49:35.031Z,2.20
2023-01-19T18:52:03.736Z,2.20
2023-01-19T18:54:30.840Z,2.20
2023-01-19T18:56:58.277Z,2.20
2023-01-19T18:59:25.047Z,2.20
2023-01-19T19:01:51.897Z,2.20
2023-01-19T19:04:19.048Z,2.20
2023-01-19T19:06:45.704Z,2.20
2023-01-19T19:09:12.528Z,2.20
2023-01-19T19:11:40.122Z,2.20
2023-01-19T19:14:07.347Z,2.20
2023-01-19T19:16:36.250Z,2.20
2023-01-19T19:19:04.313Z,2.20
2023-01-19T19:21:31.111Z,2.20
2023-01-19T19:23:58.249Z,2.10
2023-01-19T19:26:26.181Z,2.10
2023-01-19T19:28:52.888Z,2.10
2023-01-19T19:31:21.551Z,2.10
2023-01-19T19:33:50.943Z,2.10
2023-01-19T19:36:18.366Z,2.10
2023-01-19T19:38:47.433Z,2.10
2023-01-19T19:41:18.296Z,2.00
2023-01-19T19:43:45.033Z,2.00
2023-01-19T19:46:13.838Z,2.00
2023-01-19T19:48:41.180Z,2.10
2023-01-19T19:51:17.989Z,2.10
2023-01-19T19:53:46.491Z,2.10
2023-01-19T19:56:13.730Z,2.10
2023-01-19T19:58:42.118Z,2.10
2023-01-19T20:01:18.586Z,2.10
2023-01-19T20:03:45.654Z,2.10
2023-01-19T20:06:15.739Z,2.10
2023-01-19T20:08:44.475Z,2.10
2023-01-19T20:11:14.643Z,2.00
2023-01-19T20:13:43.074Z,2.10
2023-01-19T20:16:12.634Z,2.00
2023-01-19T20:18:40.653Z,2.00
2023-01-19T20:21:12.725Z,1.90
2023-01-19T20:23:40.462Z,1.90
2023-01-19T20:26:08.837Z,1.90
2023-01-19T20:28:36.942Z,1.90
2023-01-19T20:31:12.759Z,2.00
2023-01-19T20:33:40.022Z,1.90
2023-01-19T20:36:07.919Z,2.00
2023-01-19T20:38:34.785Z,1.90
2023-01-19T20:41:01.488Z,2.00
2023-01-19T20:43:29.189Z,1.90
2023-01-19T20:45:56.287Z,1.90
2023-01-19T20:48:23.054Z,1.90
2023-01-19T20:50:50.264Z,1.90
2023-01-19T20:53:17.003Z,2.00
2023-01-19T20:55:43.942Z,2.00
2023-01-19T20:58:10.608Z,2.00
2023-01-19T21:00:38.404Z,2.00
2023-01-19T21:03:05.749Z,2.00
2023-01-19T21:05:32.665Z,1.90
2023-01-19T21:07:59.541Z,1.90
2023-01-19T21:10:26.501Z,1.90
2023-01-19T21:12:53.374Z,1.90
2023-01-19T21:15:20.351Z,2.00
2023-01-19T21:17:47.092Z,2.00
2023-01-19T21:20:14.731Z,2.00
2023-01-19T21:22:41.437Z,1.90
2023-01-19T21:25:09.060Z,1.90
2023-01-19T21:27:35.869Z,2.00
2023-01-19T21:30:02.666Z,1.90
2023-01-19T21:32:29.699Z,1.80
2023-01-19T21:34:56.437Z,1.90
2023-01-19T21:37:23.434Z,1.90
2023-01-19T21:39:50.166Z,1.90
2023-01-19T21:42:16.884Z,1.90
2023-01-19T21:44:43.768Z,1.90
2023-01-19T21:47:11.844Z,1.90
2023-01-19T21:49:38.811Z,1.90
2023-01-19T21:52:05.804Z,1.90
2023-01-19T21:54:32.491Z,1.90
2023-01-19T21:57:01.078Z,1.90
2023-01-19T21:59:28.169Z,1.80
2023-01-19T22:01:55.766Z,1.90
2023-01-19T22:04:22.505Z,1.80
2023-01-19T22:06:49.266Z,1.90
2023-01-19T22:09:16.014Z,1.90
2023-01-19T22:11:42.754Z,1.90
2023-01-19T22:14:11.517Z,1.90
2023-01-19T22:16:38.284Z,1.90
2023-01-19T22:19:07.349Z,1.80
2023-01-19T22:21:35.967Z,1.80
2023-01-19T22:24:04.735Z,1.80
2023-01-19T22:26:34.090Z,1.80
2023-01-19T22:29:02.161Z,1.80
2023-01-19T22:31:30.381Z,1.80
2023-01-19T22:33:57.779Z,1.80
2023-01-19T22:36:27.414Z,1.80
2023-01-19T22:38:59.570Z,1.80
2023-01-19T22:41:28.792Z,1.80
2023-01-19T22:43:57.531Z,1.70
2023-01-19T22:46:26.814Z,1.70
2023-01-19T22:48:54.614Z,1.70
2023-01-19T22:51:22.788Z,1.70
2023-01-19T22:53:49.895Z,1.70
2023-01-19T22:56:21.843Z,1.70
2023-01-19T22:58:49.386Z,1.60
2023-01-19T23:01:19.774Z,1.70
2023-01-19T23:03:46.972Z,1.60
2023-01-19T23:06:18.979Z,1.60
2023-01-19T23:08:45.905Z,1.60
2023-01-19T23:11:18.236Z,1.60
2023-01-19T23:13:46.253Z,1.60
2023-01-19T23:16:14.100Z,1.50
2023-01-19T23:18:42.038Z,1.50
2023-01-19T23:21:11.706Z,1.50
2023-01-19T23:23:38.930Z,1.50
2023-01-19T23:26:14.393Z,1.40
2023-01-19T23:28:41.658Z,1.50
2023-01-19T23:31:22.395Z,1.50
2023-01-19T23:33:54.490Z,1.50
2023-01-19T23:36:23.317Z,1.50
2023-01-19T23:38:54.832Z,1.50
2023-01-19T23:41:22.885Z,1.50
2023-01-19T23:43:50.467Z,1.50
2023-01-19T23:46:20.163Z,1.50
2023-01-19T23:48:47.521Z,1.60
2023-01-19T23:51:17.533Z,1.50
2023-01-19T23:53:44.797Z,1.50
2023-01-19T23:56:22.026Z,1.50
2023-01-19T23:58:57.326Z,1.40
